createdAt,value
2022-08-04T00:00:07.732Z,24.80
2022-08-04T00:02:48.767Z,24.80
2022-08-04T00:05:30.484Z,24.70
2022-08-04T00:08:07.512Z,24.70
2022-08-04T00:10:36.135Z,24.70
2022-08-04T00:13:05.973Z,24.70
2022-08-04T00:15:35.568Z,24.70
2022-08-04T00:18:08.486Z,24.70
2022-08-04T00:20:42.393Z,24.70
2022-08-04T00:23:10.515Z,24.60
2022-08-04T00:25:41.444Z,24.60
2022-08-04T00:28:10.154Z,24.60
2022-08-04T00:30:38.448Z,24.60
2022-08-04T00:33:06.613Z,24.60
2022-08-04T00:35:35.342Z,24.60
2022-08-04T00:38:04.980Z,24.50
2022-08-04T00:40:40.366Z,24.50
2022-08-04T00:43:18.529Z,24.50
2022-08-04T00:46:22.346Z,24.50
2022-08-04T00:49:32.272Z,24.50
2022-08-04T00:52:31.304Z,24.40
2022-08-04T00:55:19.931Z,24.30
2022-08-04T00:58:05.001Z,24.30
2022-08-04T01:00:45.021Z,24.30
2022-08-04T01:03:28.307Z,24.30
2022-08-04T01:06:07.383Z,24.20
2022-08-04T01:08:56.349Z,24.20
2022-08-04T01:11:57.697Z,24.20
2022-08-04T01:14:48.648Z,24.20
2022-08-04T01:17:22.316Z,24.20
2022-08-04T01:20:01.292Z,24.10
2022-08-04T01:23:18.352Z,24.10
2022-08-04T01:26:42.727Z,24.00
2022-08-04T01:29:09.570Z,24.00
2022-08-04T01:31:49.438Z,24.00
2022-08-04T01:34:20.256Z,24.00
2022-08-04T01:36:55.041Z,24.00
2022-08-04T01:39:44.649Z,24.00
2022-08-04T01:42:31.243Z,24.00
2022-08-04T01:45:03.476Z,23.90
2022-08-04T01:47:35.111Z,23.90
2022-08-04T01:50:07.677Z,23.90
2022-08-04T01:52:38.310Z,23.90
2022-08-04T01:55:09.403Z,23.90
2022-08-04T01:57:42.490Z,23.90
2022-08-04T02:00:13.625Z,23.90
2022-08-04T02:02:41.744Z,23.90
2022-08-04T02:05:12.074Z,23.90
2022-08-04T02:08:00.499Z,23.80
2022-08-04T02:10:30.928Z,23.80
2022-08-04T02:13:11.825Z,23.80
2022-08-04T02:15:54.567Z,23.80
2022-08-04T02:18:28.736Z,23.80
2022-08-04T02:20:58.640Z,23.80
2022-08-04T02:23:32.697Z,23.70
2022-08-04T02:26:03.747Z,23.60
2022-08-04T02:28:37.043Z,23.60
2022-08-04T02:31:20.303Z,23.60
2022-08-04T02:33:55.642Z,23.60
2022-08-04T02:36:31.558Z,23.60
2022-08-04T02:39:02.213Z,23.60
2022-08-04T02:41:32.970Z,23.60
2022-08-04T02:44:03.244Z,23.50
2022-08-04T02:46:34.657Z,23.50
2022-08-04T02:49:05.048Z,23.50
2022-08-04T02:51:35.498Z,23.40
2022-08-04T02:54:06.458Z,23.40
2022-08-04T02:56:37.497Z,23.30
2022-08-04T02:59:09.163Z,23.30
2022-08-04T03:01:42.570Z,23.30
2022-08-04T03:04:44.234Z,23.30
2022-08-04T03:07:42.110Z,23.20
2022-08-04T03:10:50.037Z,23.10
2022-08-04T03:13:48.075Z,23.10
2022-08-04T03:16:49.110Z,23.00
2022-08-04T03:19:57.817Z,22.90
2022-08-04T03:23:12.592Z,22.80
2022-08-04T03:25:59.722Z,22.80
2022-08-04T03:29:16.370Z,22.70
2022-08-04T03:32:49.688Z,22.70
2022-08-04T03:35:56.913Z,22.70
2022-08-04T03:39:01.650Z,22.60
2022-08-04T03:41:54.849Z,22.70
2022-08-04T03:45:23.096Z,22.60
2022-08-04T03:48:09.745Z,22.60
2022-08-04T03:51:32.548Z,22.60
2022-08-04T03:54:32.926Z,22.60
2022-08-04T03:57:23.547Z,22.50
2022-08-04T04:00:05.341Z,22.50
2022-08-04T04:03:05.324Z,22.50
2022-08-04T04:05:59.919Z,22.50
2022-08-04T04:08:52.350Z,22.50
2022-08-04T04:11:57.193Z,22.40
2022-08-04T04:14:50.371Z,22.40
2022-08-04T04:17:39.322Z,22.40
2022-08-04T04:20:26.355Z,22.40
2022-08-04T04:23:16.819Z,22.40
2022-08-04T04:25:57.288Z,22.40
2022-08-04T04:29:02.842Z,22.40
2022-08-04T04:32:00.491Z,22.40
2022-08-04T04:34:44.176Z,22.40
2022-08-04T04:37:27.809Z,22.40
2022-08-04T04:40:14.791Z,22.40
2022-08-04T04:43:16.035Z,22.40
2022-08-04T04:45:54.845Z,22.40
2022-08-04T04:48:32.259Z,22.40
2022-08-04T04:51:15.263Z,22.40
2022-08-04T04:54:00.099Z,22.40
2022-08-04T04:56:39.507Z,22.40
2022-08-04T04:59:15.575Z,22.40
2022-08-04T05:02:08.486Z,22.40
2022-08-04T05:05:33.297Z,22.40
2022-08-04T05:08:45.184Z,22.50
2022-08-04T05:11:49.846Z,22.40
2022-08-04T05:14:38.495Z,22.50
2022-08-04T05:17:16.787Z,22.50
2022-08-04T05:19:54.556Z,22.50
2022-08-04T05:22:26.442Z,22.60
2022-08-04T05:25:05.982Z,22.60
2022-08-04T05:27:40.229Z,22.70
2022-08-04T05:30:11.899Z,22.70
2022-08-04T05:32:49.151Z,22.80
2022-08-04T05:35:37.402Z,22.90
2022-08-04T05:38:20.387Z,22.90
2022-08-04T05:40:49.328Z,23.00
2022-08-04T05:43:19.115Z,23.00
2022-08-04T05:45:50.069Z,23.10
2022-08-04T05:48:18.834Z,23.10
2022-08-04T05:50:48.523Z,23.30
2022-08-04T05:53:18.067Z,23.30
2022-08-04T05:55:48.837Z,23.40
2022-08-04T05:58:27.958Z,23.40
2022-08-04T06:00:57.998Z,23.50
2022-08-04T06:03:28.279Z,23.60
2022-08-04T06:05:57.998Z,23.70
2022-08-04T06:08:26.406Z,23.70
2022-08-04T06:10:56.729Z,23.80
2022-08-04T06:13:48.823Z,23.90
2022-08-04T06:16:29.372Z,24.00
2022-08-04T06:20:02.829Z,24.00
2022-08-04T06:21:52.347Z,24.20
2022-08-04T06:24:23.207Z,24.20
2022-08-04T06:26:52.483Z,24.30
2022-08-04T06:29:26.632Z,24.40
2022-08-04T06:32:30.199Z,24.50
2022-08-04T06:34:48.437Z,24.50
2022-08-04T06:37:24.342Z,24.50
2022-08-04T06:40:29.571Z,24.60
2022-08-04T06:42:57.635Z,24.70
2022-08-04T06:45:26.612Z,24.80
2022-08-04T06:47:56.571Z,24.90
2022-08-04T06:51:26.923Z,24.90
2022-08-04T06:53:14.276Z,25.00
2022-08-04T06:55:44.489Z,25.10
2022-08-04T06:58:13.971Z,25.20
2022-08-04T07:00:44.545Z,25.20
2022-08-04T07:03:15.704Z,25.30
2022-08-04T07:05:44.309Z,25.40
2022-08-04T07:08:12.906Z,25.40
2022-08-04T07:10:41.827Z,25.50
2022-08-04T07:13:10.646Z,25.50
2022-08-04T07:15:42.524Z,25.40
2022-08-04T07:18:10.746Z,25.50
2022-08-04T07:20:42.952Z,25.50
2022-08-04T07:23:13.086Z,25.50
2022-08-04T07:25:57.245Z,25.50
2022-08-04T07:28:31.115Z,25.50
2022-08-04T07:30:59.928Z,25.50
2022-08-04T07:33:29.950Z,25.50
2022-08-04T07:36:05.694Z,25.50
2022-08-04T07:38:48.154Z,25.50
2022-08-04T07:41:39.532Z,25.50
2022-08-04T07:44:09.228Z,25.50
2022-08-04T07:46:38.094Z,25.60
2022-08-04T07:49:07.151Z,25.60
2022-08-04T07:51:37.916Z,25.70
2022-08-04T07:54:07.861Z,25.80
2022-08-04T07:56:38.151Z,25.90
2022-08-04T07:59:06.697Z,26.00
2022-08-04T08:01:36.795Z,26.00
2022-08-04T08:04:07.698Z,26.10
2022-08-04T08:06:43.141Z,26.10
2022-08-04T08:09:14.761Z,26.30
2022-08-04T08:12:38.662Z,26.30
2022-08-04T08:14:34.953Z,26.30
2022-08-04T08:17:04.307Z,26.40
2022-08-04T08:19:32.561Z,26.40
2022-08-04T08:22:02.330Z,26.50
2022-08-04T08:24:31.578Z,26.50
2022-08-04T08:27:00.699Z,26.50
2022-08-04T08:29:30.949Z,26.60
2022-08-04T08:32:05.411Z,26.60
2022-08-04T08:34:36.123Z,26.60
2022-08-04T08:37:13.895Z,26.50
2022-08-04T08:39:50.838Z,26.50
2022-08-04T08:42:43.340Z,26.60
2022-08-04T08:45:41.609Z,26.60
2022-08-04T08:48:49.909Z,26.60
2022-08-04T08:51:36.821Z,26.50
2022-08-04T08:54:52.958Z,26.50
2022-08-04T08:57:59.425Z,26.40
2022-08-04T09:00:38.094Z,26.40
2022-08-04T09:03:28.357Z,26.40
2022-08-04T09:06:33.174Z,26.40
2022-08-04T09:09:32.680Z,26.40
2022-08-04T09:12:13.220Z,26.50
2022-08-04T09:14:46.915Z,26.50
2022-08-04T09:17:23.807Z,26.50
2022-08-04T09:19:58.526Z,26.60
2022-08-04T09:22:34.857Z,26.70
2022-08-04T09:25:08.490Z,26.90
2022-08-04T09:27:45.248Z,27.00
2022-08-04T09:30:19.309Z,27.10
2022-08-04T09:32:50.375Z,27.20
2022-08-04T09:35:25.331Z,27.30
2022-08-04T09:38:06.788Z,27.40
2022-08-04T09:40:53.388Z,27.40
2022-08-04T09:43:58.805Z,27.50
2022-08-04T09:46:29.549Z,27.50
2022-08-04T09:49:03.345Z,27.50
2022-08-04T09:51:57.692Z,27.60
2022-08-04T09:54:33.337Z,27.60
2022-08-04T09:57:10.664Z,27.60
2022-08-04T09:59:46.872Z,27.60
2022-08-04T10:02:20.181Z,27.60
2022-08-04T10:04:50.372Z,27.60
2022-08-04T10:08:02.110Z,27.60
2022-08-04T10:10:39.211Z,27.70
2022-08-04T10:13:18.876Z,27.70
2022-08-04T10:15:55.790Z,27.80
2022-08-04T10:18:44.919Z,27.90
2022-08-04T10:21:19.418Z,27.90
2022-08-04T10:24:01.047Z,28.00
2022-08-04T10:26:48.843Z,28.00
2022-08-04T10:29:23.700Z,28.00
2022-08-04T10:32:00.260Z,27.90
2022-08-04T10:34:37.616Z,27.90
2022-08-04T10:37:15.353Z,27.80
2022-08-04T10:40:05.889Z,27.70
2022-08-04T10:42:43.036Z,27.70
2022-08-04T10:45:18.217Z,27.60
2022-08-04T10:47:58.062Z,27.40
2022-08-04T10:50:31.391Z,27.30
2022-08-04T10:53:04.737Z,27.20
2022-08-04T10:56:07.260Z,27.00
2022-08-04T10:58:48.155Z,26.90
2022-08-04T11:02:00.838Z,26.80
2022-08-04T11:04:16.091Z,26.70
2022-08-04T11:06:59.624Z,26.60
2022-08-04T11:09:30.092Z,26.50
2022-08-04T11:12:04.753Z,26.50
2022-08-04T11:14:37.759Z,26.50
2022-08-04T11:17:08.904Z,26.50
2022-08-04T11:19:47.448Z,26.40
2022-08-04T11:22:26.619Z,26.30
2022-08-04T11:25:05.250Z,26.30
2022-08-04T11:27:41.505Z,26.30
2022-08-04T11:30:13.720Z,26.20
2022-08-04T11:32:48.120Z,26.20
2022-08-04T11:35:25.691Z,26.20
2022-08-04T11:38:02.597Z,26.10
2022-08-04T11:40:38.637Z,26.10
2022-08-04T11:43:10.819Z,26.00
2022-08-04T11:45:46.638Z,26.00
2022-08-04T11:48:20.476Z,26.00
2022-08-04T11:50:54.176Z,25.90
2022-08-04T11:53:29.135Z,25.90
2022-08-04T11:56:09.671Z,25.90
2022-08-04T11:58:40.168Z,25.90
2022-08-04T12:01:21.546Z,25.90
2022-08-04T12:04:04.165Z,26.00
2022-08-04T12:06:40.261Z,26.10
2022-08-04T12:09:21.858Z,26.10
2022-08-04T12:12:03.731Z,26.20
2022-08-04T12:14:42.533Z,26.30
2022-08-04T12:17:13.635Z,26.30
2022-08-04T12:20:03.240Z,26.30
2022-08-04T12:22:41.024Z,26.40
2022-08-04T12:25:15.043Z,26.50
2022-08-04T12:27:47.489Z,26.50
2022-08-04T12:31:00.654Z,26.60
2022-08-04T12:33:17.710Z,26.60
2022-08-04T12:35:57.457Z,26.80
2022-08-04T12:38:51.378Z,26.80
2022-08-04T12:41:25.822Z,26.90
2022-08-04T12:43:55.514Z,27.00
2022-08-04T12:46:26.106Z,27.10
2022-08-04T12:49:00.036Z,27.10
2022-08-04T12:51:31.174Z,27.20
2022-08-04T12:54:28.973Z,27.20
2022-08-04T12:57:02.486Z,27.30
2022-08-04T12:59:30.687Z,27.30
2022-08-04T13:02:09.078Z,27.30
2022-08-04T13:04:51.567Z,27.40
2022-08-04T13:07:22.395Z,27.40
2022-08-04T13:09:51.238Z,27.40
2022-08-04T13:12:26.069Z,27.50
2022-08-04T13:15:14.976Z,27.60
2022-08-04T13:17:51.897Z,27.60
2022-08-04T13:20:25.315Z,27.60
2022-08-04T13:23:00.953Z,27.70
2022-08-04T13:26:44.347Z,27.70
2022-08-04T13:28:23.995Z,27.80
2022-08-04T13:30:56.085Z,27.90
2022-08-04T13:33:30.476Z,28.00
2022-08-04T13:36:00.582Z,28.00
2022-08-04T13:38:30.478Z,28.10
2022-08-04T13:41:01.088Z,28.20
2022-08-04T13:43:48.575Z,28.30
2022-08-04T13:46:28.136Z,28.30
2022-08-04T13:49:25.866Z,28.40
2022-08-04T13:51:58.034Z,28.40
2022-08-04T13:54:30.603Z,28.50
2022-08-04T13:57:02.888Z,28.60
2022-08-04T13:59:38.363Z,28.70
2022-08-04T14:02:09.988Z,28.80
2022-08-04T14:04:43.239Z,28.90
2022-08-04T14:07:17.988Z,29.00
2022-08-04T14:10:02.852Z,29.00
2022-08-04T14:12:38.388Z,29.10
2022-08-04T14:16:01.752Z,29.10
2022-08-04T14:18:25.489Z,29.10
2022-08-04T14:21:06.781Z,29.10
2022-08-04T14:23:47.321Z,29.20
2022-08-04T14:26:32.637Z,29.10
2022-08-04T14:29:26.864Z,29.10
2022-08-04T14:32:04.247Z,29.20
2022-08-04T14:34:39.260Z,29.30
2022-08-04T14:37:16.618Z,29.30
2022-08-04T14:40:17.561Z,29.40
2022-08-04T14:42:55.556Z,29.50
2022-08-04T14:45:35.091Z,29.60
2022-08-04T14:48:08.527Z,29.80
2022-08-04T14:50:39.285Z,29.90
2022-08-04T14:53:09.540Z,30.00
2022-08-04T14:55:38.263Z,30.10
2022-08-04T14:58:34.169Z,30.20
2022-08-04T15:00:57.476Z,30.30
2022-08-04T15:03:27.352Z,30.40
2022-08-04T15:06:01.851Z,30.50
2022-08-04T15:08:32.419Z,30.60
2022-08-04T15:11:03.016Z,30.70
2022-08-04T15:13:32.304Z,30.80
2022-08-04T15:16:07.399Z,30.90
2022-08-04T15:18:39.418Z,30.80
2022-08-04T15:21:09.140Z,30.80
2022-08-04T15:23:39.216Z,30.80
2022-08-04T15:26:11.016Z,30.80
2022-08-04T15:28:42.186Z,30.80
2022-08-04T15:32:05.554Z,30.80
2022-08-04T15:34:00.993Z,30.80
2022-08-04T15:36:39.755Z,30.80
2022-08-04T15:39:17.079Z,30.80
2022-08-04T15:41:59.543Z,30.70
2022-08-04T15:45:05.908Z,30.70
2022-08-04T15:47:34.098Z,30.70
2022-08-04T15:50:09.176Z,30.60
2022-08-04T15:53:10.339Z,30.60
2022-08-04T15:55:42.854Z,30.60
2022-08-04T15:58:12.726Z,30.50
2022-08-04T16:01:15.810Z,30.50
2022-08-04T16:03:53.189Z,30.50
2022-08-04T16:06:46.425Z,30.40
2022-08-04T16:09:45.970Z,30.30
2022-08-04T16:12:55.072Z,30.20
2022-08-04T16:15:40.586Z,30.00
2022-08-04T16:18:13.973Z,29.90
2022-08-04T16:20:57.057Z,29.70
2022-08-04T16:23:59.257Z,29.60
2022-08-04T16:26:54.708Z,29.50
2022-08-04T16:29:38.954Z,29.40
2022-08-04T16:32:26.448Z,29.20
2022-08-04T16:34:59.720Z,29.10
2022-08-04T16:37:33.861Z,29.00
2022-08-04T16:40:37.179Z,28.90
2022-08-04T16:43:09.372Z,28.80
2022-08-04T16:45:54.991Z,28.70
2022-08-04T16:48:27.837Z,28.70
2022-08-04T16:51:05.104Z,28.60
2022-08-04T16:54:03.028Z,28.50
2022-08-04T16:56:35.300Z,28.40
2022-08-04T16:59:08.534Z,28.30
2022-08-04T17:01:36.929Z,28.30
2022-08-04T17:04:06.796Z,28.30
2022-08-04T17:06:37.576Z,28.30
2022-08-04T17:09:07.700Z,28.20
2022-08-04T17:11:37.224Z,28.10
2022-08-04T17:14:06.531Z,28.10
2022-08-04T17:16:36.891Z,28.00
2022-08-04T17:19:06.346Z,27.90
2022-08-04T17:21:36.713Z,27.90
2022-08-04T17:24:12.866Z,27.80
2022-08-04T17:29:43.301Z,27.60
2022-08-04T17:32:16.282Z,27.50
2022-08-04T17:34:48.641Z,27.40
2022-08-04T17:37:40.493Z,27.30
2022-08-04T17:40:11.247Z,27.20
2022-08-04T17:42:41.955Z,27.20
2022-08-04T17:45:49.221Z,27.10
2022-08-04T17:48:00.470Z,27.00
2022-08-04T17:50:35.686Z,26.90
2022-08-04T17:53:11.988Z,26.90
2022-08-04T17:55:47.146Z,26.80
2022-08-04T17:58:22.333Z,26.70
2022-08-04T18:01:22.544Z,26.60
2022-08-04T18:03:53.005Z,26.60
2022-08-04T18:06:22.078Z,26.50
2022-08-04T18:11:42.421Z,26.40
2022-08-04T18:14:16.473Z,26.40
2022-08-04T18:16:54.418Z,26.30
2022-08-04T18:19:23.956Z,26.30
2022-08-04T18:21:59.735Z,26.20
2022-08-04T18:24:35.131Z,26.20
2022-08-04T18:27:19.585Z,26.20
2022-08-04T18:30:15.062Z,26.10
2022-08-04T18:32:37.185Z,26.10
2022-08-04T18:35:19.812Z,26.00
2022-08-04T18:38:06.324Z,25.90
2022-08-04T18:40:52.991Z,25.90
2022-08-04T18:43:28.260Z,25.90
2022-08-04T18:46:00.285Z,25.80
2022-08-04T18:48:35.979Z,25.70
2022-08-04T18:51:22.599Z,25.60
2022-08-04T18:53:58.558Z,25.50
2022-08-04T18:56:29.586Z,25.40
2022-08-04T18:59:00.276Z,25.30
2022-08-04T19:02:09.264Z,25.30
2022-08-04T19:04:33.724Z,25.30
2022-08-04T19:07:29.568Z,25.20
2022-08-04T19:12:42.409Z,25.10
2022-08-04T19:15:11.637Z,25.00
2022-08-04T19:17:54.013Z,25.00
2022-08-04T19:20:26.515Z,24.90
2022-08-04T19:24:29.898Z,24.80
2022-08-04T19:26:01.583Z,24.80
2022-08-04T19:28:34.337Z,24.70
2022-08-04T19:31:05.355Z,24.70
2022-08-04T19:33:58.066Z,24.70
2022-08-04T19:36:27.787Z,24.70
2022-08-04T19:38:58.151Z,24.70
2022-08-04T19:41:26.771Z,24.60
2022-08-04T19:43:55.596Z,24.50
2022-08-04T19:46:25.735Z,24.50
2022-08-04T19:48:59.004Z,24.40
2022-08-04T19:51:28.043Z,24.40
2022-08-04T19:54:03.769Z,24.40
2022-08-04T19:56:46.481Z,24.30
2022-08-04T19:59:16.876Z,24.30
2022-08-04T20:01:46.099Z,24.20
2022-08-04T20:04:16.057Z,24.20
2022-08-04T20:06:44.298Z,24.20
2022-08-04T20:09:25.838Z,24.10
2022-08-04T20:11:55.594Z,24.10
2022-08-04T20:14:32.597Z,24.10
2022-08-04T20:17:02.395Z,24.10
2022-08-04T20:19:31.840Z,24.00
2022-08-04T20:22:03.009Z,24.00
2022-08-04T20:24:41.516Z,24.00
2022-08-04T20:27:15.644Z,23.90
2022-08-04T20:29:46.138Z,24.00
2022-08-04T20:32:19.266Z,23.90
2022-08-04T20:34:49.409Z,23.90
2022-08-04T20:37:19.794Z,23.90
2022-08-04T20:39:54.839Z,23.80
2022-08-04T20:42:27.476Z,23.80
2022-08-04T20:45:02.090Z,23.80
2022-08-04T20:47:35.741Z,23.80
2022-08-04T20:50:29.511Z,23.80
2022-08-04T20:52:58.869Z,23.70
2022-08-04T20:55:27.165Z,23.70
2022-08-04T20:58:03.054Z,23.70
2022-08-04T21:00:32.173Z,23.60
2022-08-04T21:03:00.522Z,23.60
2022-08-04T21:05:31.438Z,23.60
2022-08-04T21:08:00.212Z,23.60
2022-08-04T21:10:30.167Z,23.60
2022-08-04T21:12:58.257Z,23.60
2022-08-04T21:15:58.072Z,23.50
2022-08-04T21:18:16.847Z,23.50
2022-08-04T21:20:48.334Z,23.50
2022-08-04T21:23:16.454Z,23.50
2022-08-04T21:25:45.625Z,23.40
2022-08-04T21:28:20.354Z,23.40
2022-08-04T21:30:53.976Z,23.30
2022-08-04T21:33:23.293Z,23.30
2022-08-04T21:35:54.106Z,23.30
2022-08-04T21:38:25.062Z,23.20
2022-08-04T21:40:53.903Z,23.10
2022-08-04T21:43:23.695Z,23.00
2022-08-04T21:45:55.767Z,23.00
2022-08-04T21:48:27.342Z,23.00
2022-08-04T21:50:57.246Z,23.00
2022-08-04T21:53:27.678Z,22.90
2022-08-04T21:56:06.324Z,22.90
2022-08-04T21:58:44.774Z,22.90
2022-08-04T22:01:13.734Z,22.80
2022-08-04T22:04:01.806Z,22.80
2022-08-04T22:06:31.171Z,22.70
2022-08-04T22:08:59.209Z,22.70
2022-08-04T22:11:43.966Z,22.70
2022-08-04T22:14:16.896Z,22.70
2022-08-04T22:16:45.380Z,22.60
2022-08-04T22:19:14.186Z,22.60
2022-08-04T22:21:52.707Z,22.50
2022-08-04T22:24:20.837Z,22.50
2022-08-04T22:26:51.077Z,22.50
2022-08-04T22:29:19.102Z,22.50
2022-08-04T22:31:53.224Z,22.40
2022-08-04T22:34:24.804Z,22.40
2022-08-04T22:36:54.594Z,22.40
2022-08-04T22:39:23.624Z,22.40
2022-08-04T22:42:03.721Z,22.40
2022-08-04T22:44:33.288Z,22.30
2022-08-04T22:47:02.178Z,22.30
2022-08-04T22:49:32.643Z,22.30
2022-08-04T22:52:09.667Z,22.30
2022-08-04T22:54:39.151Z,22.30
2022-08-04T22:57:09.054Z,22.20
2022-08-04T22:59:42.919Z,22.30
2022-08-04T23:02:11.296Z,22.30
2022-08-04T23:04:42.730Z,22.30
2022-08-04T23:07:13.805Z,22.30
2022-08-04T23:09:51.129Z,22.30
2022-08-04T23:12:25.528Z,22.30
2022-08-04T23:14:54.743Z,22.20
2022-08-04T23:17:23.237Z,22.20
2022-08-04T23:19:57.609Z,22.20
2022-08-04T23:22:40.952Z,22.20
2022-08-04T23:25:15.328Z,22.10
2022-08-04T23:27:48.052Z,22.10
2022-08-04T23:30:16.966Z,22.00
2022-08-04T23:32:45.549Z,22.00
2022-08-04T23:35:15.235Z,22.00
2022-08-04T23:37:56.222Z,22.00
2022-08-04T23:40:33.454Z,22.00
2022-08-04T23:43:11.983Z,22.00
2022-08-04T23:46:06.413Z,22.00
2022-08-04T23:48:33.108Z,22.00
2022-08-04T23:51:04.693Z,22.00
2022-08-04T23:54:02.351Z,22.00
2022-08-04T23:56:34.077Z,22.00
2022-08-04T23:59:03.815Z,21.90
